sensor_id;sensor_type;location;lat;lon;timestamp;P1;durP1;ratioP1;P2;durP2;ratioP2
70733;SDS011;58320;48.804;9.252;2024-02-23T00:02:18;1.85;;;0.45;;
70733;SDS011;58320;48.804;9.252;2024-02-23T00:04:44;1.48;;;0.63;;
70733;SDS011;58320;48.804;9.252;2024-02-23T00:07:10;1.80;;;0.70;;
70733;SDS011;58320;48.804;9.252;2024-02-23T00:09:36;1.65;;;0.65;;
70733;SDS011;58320;48.804;9.252;2024-02-23T00:12:03;2.00;;;0.63;;
70733;SDS011;58320;48.804;9.252;2024-02-23T00:14:29;1.57;;;0.50;;
70733;SDS011;58320;48.804;9.252;2024-02-23T00:17:01;1.20;;;0.60;;
70733;SDS011;58320;48.804;9.252;2024-02-23T00:19:27;1.35;;;0.77;;
70733;SDS011;58320;48.804;9.252;2024-02-23T00:21:57;1.95;;;0.55;;
70733;SDS011;58320;48.804;9.252;2024-02-23T00:24:25;1.35;;;0.60;;
70733;SDS011;58320;48.804;9.252;2024-02-23T00:26:51;1.30;;;0.67;;
70733;SDS011;58320;48.804;9.252;2024-02-23T00:29:17;3.17;;;0.80;;
70733;SDS011;58320;48.804;9.252;2024-02-23T00:31:43;1.25;;;0.52;;
70733;SDS011;58320;48.804;9.252;2024-02-23T00:34:10;1.35;;;0.50;;
70733;SDS011;58320;48.804;9.252;2024-02-23T00:36:41;2.77;;;0.40;;
70733;SDS011;58320;48.804;9.252;2024-02-23T00:39:07;1.10;;;0.50;;
70733;SDS011;58320;48.804;9.252;2024-02-23T00:41:34;2.08;;;0.70;;
70733;SDS011;58320;48.804;9.252;2024-02-23T00:44:00;3.47;;;0.60;;
70733;SDS011;58320;48.804;9.252;2024-02-23T00:46:27;1.50;;;0.70;;
70733;SDS011;58320;48.804;9.252;2024-02-23T00:48:52;1.27;;;0.50;;
70733;SDS011;58320;48.804;9.252;2024-02-23T00:51:19;1.75;;;0.88;;
70733;SDS011;58320;48.804;9.252;2024-02-23T00:53:45;1.30;;;0.60;;
70733;SDS011;58320;48.804;9.252;2024-02-23T00:56:10;4.37;;;0.50;;
70733;SDS011;58320;48.804;9.252;2024-02-23T00:58:37;1.60;;;0.80;;
70733;SDS011;58320;48.804;9.252;2024-02-23T01:01:03;1.88;;;0.80;;
70733;SDS011;58320;48.804;9.252;2024-02-23T01:03:28;2.23;;;0.70;;
70733;SDS011;58320;48.804;9.252;2024-02-23T01:05:54;2.65;;;0.60;;
70733;SDS011;58320;48.804;9.252;2024-02-23T01:08:20;1.67;;;0.80;;
70733;SDS011;58320;48.804;9.252;2024-02-23T01:10:45;2.75;;;0.60;;
70733;SDS011;58320;48.804;9.252;2024-02-23T01:13:11;1.63;;;0.80;;
70733;SDS011;58320;48.804;9.252;2024-02-23T01:15:37;2.17;;;0.82;;
70733;SDS011;58320;48.804;9.252;2024-02-23T01:18:03;1.90;;;0.90;;
70733;SDS011;58320;48.804;9.252;2024-02-23T01:20:30;1.85;;;0.60;;
70733;SDS011;58320;48.804;9.252;2024-02-23T01:22:56;1.90;;;0.68;;
70733;SDS011;58320;48.804;9.252;2024-02-23T01:25:22;3.80;;;0.52;;
70733;SDS011;58320;48.804;9.252;2024-02-23T01:27:48;1.73;;;0.50;;
70733;SDS011;58320;48.804;9.252;2024-02-23T01:30:13;2.72;;;0.57;;
70733;SDS011;58320;48.804;9.252;2024-02-23T01:32:39;4.20;;;0.93;;
70733;SDS011;58320;48.804;9.252;2024-02-23T01:35:05;2.28;;;1.10;;
70733;SDS011;58320;48.804;9.252;2024-02-23T01:37:32;2.20;;;1.00;;
70733;SDS011;58320;48.804;9.252;2024-02-23T01:39:59;1.90;;;0.70;;
70733;SDS011;58320;48.804;9.252;2024-02-23T01:42:25;2.63;;;0.82;;
70733;SDS011;58320;48.804;9.252;2024-02-23T01:44:51;2.58;;;0.90;;
70733;SDS011;58320;48.804;9.252;2024-02-23T01:47:18;3.15;;;0.82;;
70733;SDS011;58320;48.804;9.252;2024-02-23T01:49:45;3.33;;;0.80;;
70733;SDS011;58320;48.804;9.252;2024-02-23T01:52:12;2.20;;;0.87;;
70733;SDS011;58320;48.804;9.252;2024-02-23T01:54:40;4.20;;;0.93;;
70733;SDS011;58320;48.804;9.252;2024-02-23T01:57:05;2.65;;;0.90;;
70733;SDS011;58320;48.804;9.252;2024-02-23T01:59:32;2.42;;;0.80;;
70733;SDS011;58320;48.804;9.252;2024-02-23T02:02:02;4.90;;;0.80;;
70733;SDS011;58320;48.804;9.252;2024-02-23T02:04:28;2.17;;;0.52;;
70733;SDS011;58320;48.804;9.252;2024-02-23T02:06:53;3.22;;;0.90;;
70733;SDS011;58320;48.804;9.252;2024-02-23T02:09:20;4.75;;;1.10;;
70733;SDS011;58320;48.804;9.252;2024-02-23T02:11:48;3.63;;;0.90;;
70733;SDS011;58320;48.804;9.252;2024-02-23T02:14:15;1.92;;;0.80;;
70733;SDS011;58320;48.804;9.252;2024-02-23T02:16:42;2.35;;;0.55;;
70733;SDS011;58320;48.804;9.252;2024-02-23T02:19:11;3.42;;;0.88;;
70733;SDS011;58320;48.804;9.252;2024-02-23T02:21:37;2.50;;;0.80;;
70733;SDS011;58320;48.804;9.252;2024-02-23T02:24:04;2.22;;;0.65;;
70733;SDS011;58320;48.804;9.252;2024-02-23T02:26:30;3.70;;;0.90;;
70733;SDS011;58320;48.804;9.252;2024-02-23T02:28:56;1.48;;;0.50;;
70733;SDS011;58320;48.804;9.252;2024-02-23T02:31:22;3.20;;;1.17;;
70733;SDS011;58320;48.804;9.252;2024-02-23T02:33:47;2.73;;;0.67;;
70733;SDS011;58320;48.804;9.252;2024-02-23T02:36:13;2.33;;;0.93;;
70733;SDS011;58320;48.804;9.252;2024-02-23T02:38:39;1.10;;;0.50;;
70733;SDS011;58320;48.804;9.252;2024-02-23T02:41:05;2.05;;;0.57;;
70733;SDS011;58320;48.804;9.252;2024-02-23T02:43:31;2.10;;;0.80;;
70733;SDS011;58320;48.804;9.252;2024-02-23T02:45:57;1.90;;;0.70;;
70733;SDS011;58320;48.804;9.252;2024-02-23T02:48:23;2.50;;;0.77;;
70733;SDS011;58320;48.804;9.252;2024-02-23T02:50:49;2.50;;;0.60;;
70733;SDS011;58320;48.804;9.252;2024-02-23T02:53:16;2.33;;;0.88;;
70733;SDS011;58320;48.804;9.252;2024-02-23T02:55:43;1.75;;;0.70;;
70733;SDS011;58320;48.804;9.252;2024-02-23T02:58:10;2.03;;;0.70;;
70733;SDS011;58320;48.804;9.252;2024-02-23T03:00:36;2.92;;;0.80;;
70733;SDS011;58320;48.804;9.252;2024-02-23T03:03:02;3.55;;;0.80;;
70733;SDS011;58320;48.804;9.252;2024-02-23T03:05:28;4.63;;;0.83;;
70733;SDS011;58320;48.804;9.252;2024-02-23T03:07:53;3.97;;;1.10;;
70733;SDS011;58320;48.804;9.252;2024-02-23T03:10:19;3.53;;;0.90;;
70733;SDS011;58320;48.804;9.252;2024-02-23T03:12:45;2.35;;;0.80;;
70733;SDS011;58320;48.804;9.252;2024-02-23T03:15:11;3.75;;;0.93;;
70733;SDS011;58320;48.804;9.252;2024-02-23T03:17:37;2.30;;;1.03;;
70733;SDS011;58320;48.804;9.252;2024-02-23T03:20:03;4.50;;;0.98;;
70733;SDS011;58320;48.804;9.252;2024-02-23T03:22:36;2.20;;;0.75;;
70733;SDS011;58320;48.804;9.252;2024-02-23T03:25:03;2.72;;;0.95;;
70733;SDS011;58320;48.804;9.252;2024-02-23T03:27:33;2.13;;;0.80;;
70733;SDS011;58320;48.804;9.252;2024-02-23T03:30:03;3.22;;;1.20;;
70733;SDS011;58320;48.804;9.252;2024-02-23T03:32:33;4.82;;;1.15;;
70733;SDS011;58320;48.804;9.252;2024-02-23T03:35:02;2.42;;;0.95;;
70733;SDS011;58320;48.804;9.252;2024-02-23T03:37:29;4.25;;;1.10;;
70733;SDS011;58320;48.804;9.252;2024-02-23T03:39:55;2.23;;;0.70;;
70733;SDS011;58320;48.804;9.252;2024-02-23T03:42:20;4.57;;;1.00;;
70733;SDS011;58320;48.804;9.252;2024-02-23T03:44:46;2.67;;;0.80;;
70733;SDS011;58320;48.804;9.252;2024-02-23T03:47:12;3.13;;;0.80;;
70733;SDS011;58320;48.804;9.252;2024-02-23T03:49:38;2.70;;;0.68;;
70733;SDS011;58320;48.804;9.252;2024-02-23T03:52:04;6.83;;;1.10;;
70733;SDS011;58320;48.804;9.252;2024-02-23T03:54:30;4.40;;;1.08;;
70733;SDS011;58320;48.804;9.252;2024-02-23T03:56:56;2.88;;;0.95;;
70733;SDS011;58320;48.804;9.252;2024-02-23T03:59:22;4.22;;;1.20;;
70733;SDS011;58320;48.804;9.252;2024-02-23T04:03:24;4.25;;;1.88;;
70733;SDS011;58320;48.804;9.252;2024-02-23T04:05:50;2.55;;;0.93;;
70733;SDS011;58320;48.804;9.252;2024-02-23T04:08:15;3.53;;;0.70;;
70733;SDS011;58320;48.804;9.252;2024-02-23T04:10:41;2.60;;;0.73;;
70733;SDS011;58320;48.804;9.252;2024-02-23T04:13:07;2.07;;;0.63;;
70733;SDS011;58320;48.804;9.252;2024-02-23T04:15:33;2.20;;;1.00;;
70733;SDS011;58320;48.804;9.252;2024-02-23T04:17:59;3.05;;;0.93;;
70733;SDS011;58320;48.804;9.252;2024-02-23T04:20:25;3.93;;;0.97;;
70733;SDS011;58320;48.804;9.252;2024-02-23T04:22:50;4.57;;;0.85;;
70733;SDS011;58320;48.804;9.252;2024-02-23T04:25:19;3.47;;;0.90;;
70733;SDS011;58320;48.804;9.252;2024-02-23T04:27:45;2.95;;;0.80;;
70733;SDS011;58320;48.804;9.252;2024-02-23T04:30:10;2.80;;;0.80;;
70733;SDS011;58320;48.804;9.252;2024-02-23T04:32:37;4.47;;;1.05;;
70733;SDS011;58320;48.804;9.252;2024-02-23T04:35:03;1.88;;;0.80;;
70733;SDS011;58320;48.804;9.252;2024-02-23T04:37:30;3.28;;;0.90;;
70733;SDS011;58320;48.804;9.252;2024-02-23T04:39:55;2.87;;;1.00;;
70733;SDS011;58320;48.804;9.252;2024-02-23T04:42:21;2.95;;;1.10;;
70733;SDS011;58320;48.804;9.252;2024-02-23T04:44:47;3.10;;;1.00;;
70733;SDS011;58320;48.804;9.252;2024-02-23T04:47:14;2.78;;;1.10;;
70733;SDS011;58320;48.804;9.252;2024-02-23T04:49:40;2.83;;;0.70;;
70733;SDS011;58320;48.804;9.252;2024-02-23T04:52:06;2.00;;;0.83;;
70733;SDS011;58320;48.804;9.252;2024-02-23T04:54:33;2.90;;;1.05;;
70733;SDS011;58320;48.804;9.252;2024-02-23T04:57:00;3.17;;;1.15;;
70733;SDS011;58320;48.804;9.252;2024-02-23T04:59:25;3.03;;;1.05;;
70733;SDS011;58320;48.804;9.252;2024-02-23T05:01:51;3.80;;;1.20;;
70733;SDS011;58320;48.804;9.252;2024-02-23T05:04:17;3.10;;;1.02;;
70733;SDS011;58320;48.804;9.252;2024-02-23T05:06:43;3.10;;;1.00;;
70733;SDS011;58320;48.804;9.252;2024-02-23T05:09:08;3.25;;;0.93;;
70733;SDS011;58320;48.804;9.252;2024-02-23T05:11:34;2.60;;;1.47;;
70733;SDS011;58320;48.804;9.252;2024-02-23T05:14:00;2.27;;;0.80;;
70733;SDS011;58320;48.804;9.252;2024-02-23T05:16:26;4.93;;;1.02;;
70733;SDS011;58320;48.804;9.252;2024-02-23T05:18:52;2.17;;;0.80;;
70733;SDS011;58320;48.804;9.252;2024-02-23T05:21:17;6.50;;;2.15;;
70733;SDS011;58320;48.804;9.252;2024-02-23T05:23:43;2.47;;;0.90;;
70733;SDS011;58320;48.804;9.252;2024-02-23T05:26:11;4.25;;;0.90;;
70733;SDS011;58320;48.804;9.252;2024-02-23T05:28:37;2.83;;;1.00;;
70733;SDS011;58320;48.804;9.252;2024-02-23T05:31:03;2.35;;;1.10;;
70733;SDS011;58320;48.804;9.252;2024-02-23T05:33:29;1.98;;;0.77;;
70733;SDS011;58320;48.804;9.252;2024-02-23T05:35:55;3.13;;;1.17;;
70733;SDS011;58320;48.804;9.252;2024-02-23T05:38:21;2.65;;;1.02;;
70733;SDS011;58320;48.804;9.252;2024-02-23T05:40:46;3.40;;;1.10;;
70733;SDS011;58320;48.804;9.252;2024-02-23T05:43:13;5.32;;;1.00;;
70733;SDS011;58320;48.804;9.252;2024-02-23T05:45:39;5.13;;;0.88;;
70733;SDS011;58320;48.804;9.252;2024-02-23T05:48:05;3.37;;;1.00;;
70733;SDS011;58320;48.804;9.252;2024-02-23T05:50:32;3.53;;;0.90;;
70733;SDS011;58320;48.804;9.252;2024-02-23T05:52:57;4.18;;;1.10;;
70733;SDS011;58320;48.804;9.252;2024-02-23T05:55:23;3.90;;;1.20;;
70733;SDS011;58320;48.804;9.252;2024-02-23T05:57:49;2.73;;;0.90;;
70733;SDS011;58320;48.804;9.252;2024-02-23T06:00:18;5.05;;;1.10;;
70733;SDS011;58320;48.804;9.252;2024-02-23T06:02:44;3.42;;;1.38;;
70733;SDS011;58320;48.804;9.252;2024-02-23T06:05:11;2.63;;;1.20;;
70733;SDS011;58320;48.804;9.252;2024-02-23T06:07:37;2.73;;;1.00;;
70733;SDS011;58320;48.804;9.252;2024-02-23T06:10:03;3.47;;;1.35;;
70733;SDS011;58320;48.804;9.252;2024-02-23T06:12:30;2.88;;;1.05;;
70733;SDS011;58320;48.804;9.252;2024-02-23T06:14:56;3.37;;;1.40;;
70733;SDS011;58320;48.804;9.252;2024-02-23T06:17:23;5.43;;;1.77;;
70733;SDS011;58320;48.804;9.252;2024-02-23T06:19:49;4.05;;;1.48;;
70733;SDS011;58320;48.804;9.252;2024-02-23T06:22:15;3.80;;;1.50;;
70733;SDS011;58320;48.804;9.252;2024-02-23T06:24:46;4.55;;;1.25;;
70733;SDS011;58320;48.804;9.252;2024-02-23T06:27:12;4.35;;;1.15;;
70733;SDS011;58320;48.804;9.252;2024-02-23T06:29:38;4.63;;;1.27;;
70733;SDS011;58320;48.804;9.252;2024-02-23T06:32:04;4.30;;;1.33;;
70733;SDS011;58320;48.804;9.252;2024-02-23T06:34:30;4.73;;;1.40;;
70733;SDS011;58320;48.804;9.252;2024-02-23T06:36:56;5.22;;;1.30;;
70733;SDS011;58320;48.804;9.252;2024-02-23T06:39:22;3.85;;;1.35;;
70733;SDS011;58320;48.804;9.252;2024-02-23T06:41:48;3.80;;;1.47;;
70733;SDS011;58320;48.804;9.252;2024-02-23T06:44:14;4.82;;;1.60;;
70733;SDS011;58320;48.804;9.252;2024-02-23T06:46:39;3.03;;;1.05;;
70733;SDS011;58320;48.804;9.252;2024-02-23T06:49:06;3.57;;;1.40;;
70733;SDS011;58320;48.804;9.252;2024-02-23T06:51:33;4.13;;;1.52;;
70733;SDS011;58320;48.804;9.252;2024-02-23T06:53:59;3.55;;;1.60;;
70733;SDS011;58320;48.804;9.252;2024-02-23T06:56:24;4.50;;;1.30;;
70733;SDS011;58320;48.804;9.252;2024-02-23T06:58:50;3.75;;;1.63;;
70733;SDS011;58320;48.804;9.252;2024-02-23T07:01:16;4.50;;;1.40;;
70733;SDS011;58320;48.804;9.252;2024-02-23T07:03:42;4.20;;;1.47;;
70733;SDS011;58320;48.804;9.252;2024-02-23T07:06:09;5.40;;;1.80;;
70733;SDS011;58320;48.804;9.252;2024-02-23T07:08:37;3.78;;;1.60;;
70733;SDS011;58320;48.804;9.252;2024-02-23T07:11:03;3.77;;;1.50;;
70733;SDS011;58320;48.804;9.252;2024-02-23T07:13:28;4.22;;;1.80;;
70733;SDS011;58320;48.804;9.252;2024-02-23T07:15:55;2.90;;;1.45;;
70733;SDS011;58320;48.804;9.252;2024-02-23T07:18:21;4.27;;;1.20;;
70733;SDS011;58320;48.804;9.252;2024-02-23T07:20:47;3.10;;;1.23;;
70733;SDS011;58320;48.804;9.252;2024-02-23T07:23:13;3.15;;;1.52;;
70733;SDS011;58320;48.804;9.252;2024-02-23T07:25:41;5.93;;;1.30;;
70733;SDS011;58320;48.804;9.252;2024-02-23T07:28:07;3.37;;;1.43;;
70733;SDS011;58320;48.804;9.252;2024-02-23T07:30:32;4.25;;;1.40;;
70733;SDS011;58320;48.804;9.252;2024-02-23T07:33:00;3.15;;;1.40;;
70733;SDS011;58320;48.804;9.252;2024-02-23T07:35:25;6.23;;;2.00;;
70733;SDS011;58320;48.804;9.252;2024-02-23T07:37:51;3.75;;;1.90;;
70733;SDS011;58320;48.804;9.252;2024-02-23T07:40:17;5.23;;;1.70;;
70733;SDS011;58320;48.804;9.252;2024-02-23T07:42:43;4.88;;;1.88;;
70733;SDS011;58320;48.804;9.252;2024-02-23T07:45:09;7.50;;;1.20;;
70733;SDS011;58320;48.804;9.252;2024-02-23T07:47:35;4.43;;;1.50;;
70733;SDS011;58320;48.804;9.252;2024-02-23T07:50:01;3.55;;;1.70;;
70733;SDS011;58320;48.804;9.252;2024-02-23T07:52:27;5.28;;;1.25;;
70733;SDS011;58320;48.804;9.252;2024-02-23T07:54:53;4.60;;;1.27;;
70733;SDS011;58320;48.804;9.252;2024-02-23T07:57:19;5.68;;;1.45;;
70733;SDS011;58320;48.804;9.252;2024-02-23T07:59:45;3.33;;;1.27;;
70733;SDS011;58320;48.804;9.252;2024-02-23T08:02:11;4.03;;;1.60;;
70733;SDS011;58320;48.804;9.252;2024-02-23T08:04:37;3.10;;;1.10;;
70733;SDS011;58320;48.804;9.252;2024-02-23T08:07:03;3.38;;;1.30;;
70733;SDS011;58320;48.804;9.252;2024-02-23T08:09:29;3.17;;;1.30;;
70733;SDS011;58320;48.804;9.252;2024-02-23T08:11:55;3.00;;;1.30;;
70733;SDS011;58320;48.804;9.252;2024-02-23T08:14:21;4.40;;;1.38;;
70733;SDS011;58320;48.804;9.252;2024-02-23T08:16:47;5.43;;;1.83;;
70733;SDS011;58320;48.804;9.252;2024-02-23T08:19:13;4.40;;;1.90;;
70733;SDS011;58320;48.804;9.252;2024-02-23T08:21:39;7.32;;;2.10;;
70733;SDS011;58320;48.804;9.252;2024-02-23T08:24:06;4.00;;;1.70;;
70733;SDS011;58320;48.804;9.252;2024-02-23T08:26:32;3.42;;;1.90;;
70733;SDS011;58320;48.804;9.252;2024-02-23T08:28:58;6.50;;;1.63;;
70733;SDS011;58320;48.804;9.252;2024-02-23T08:31:24;4.25;;;1.85;;
70733;SDS011;58320;48.804;9.252;2024-02-23T08:33:50;6.23;;;1.87;;
70733;SDS011;58320;48.804;9.252;2024-02-23T08:36:16;4.32;;;1.65;;
70733;SDS011;58320;48.804;9.252;2024-02-23T08:38:41;4.43;;;1.50;;
70733;SDS011;58320;48.804;9.252;2024-02-23T08:41:07;3.03;;;1.83;;
70733;SDS011;58320;48.804;9.252;2024-02-23T08:43:33;3.30;;;1.33;;
70733;SDS011;58320;48.804;9.252;2024-02-23T08:45:59;3.03;;;1.30;;
70733;SDS011;58320;48.804;9.252;2024-02-23T08:48:25;2.60;;;1.20;;
70733;SDS011;58320;48.804;9.252;2024-02-23T08:50:50;2.47;;;1.13;;
70733;SDS011;58320;48.804;9.252;2024-02-23T08:53:16;5.88;;;1.35;;
70733;SDS011;58320;48.804;9.252;2024-02-23T08:55:42;6.00;;;1.60;;
70733;SDS011;58320;48.804;9.252;2024-02-23T08:58:09;4.25;;;1.23;;
70733;SDS011;58320;48.804;9.252;2024-02-23T09:00:34;3.45;;;1.67;;
70733;SDS011;58320;48.804;9.252;2024-02-23T09:03:02;3.10;;;1.30;;
70733;SDS011;58320;48.804;9.252;2024-02-23T09:05:28;3.03;;;1.40;;
70733;SDS011;58320;48.804;9.252;2024-02-23T09:07:54;3.95;;;1.58;;
70733;SDS011;58320;48.804;9.252;2024-02-23T09:10:20;3.70;;;1.23;;
70733;SDS011;58320;48.804;9.252;2024-02-23T09:12:46;3.17;;;1.00;;
70733;SDS011;58320;48.804;9.252;2024-02-23T09:15:12;5.22;;;1.52;;
70733;SDS011;58320;48.804;9.252;2024-02-23T09:17:39;2.50;;;1.08;;
70733;SDS011;58320;48.804;9.252;2024-02-23T09:20:06;4.68;;;1.15;;
70733;SDS011;58320;48.804;9.252;2024-02-23T09:22:33;2.80;;;1.20;;
70733;SDS011;58320;48.804;9.252;2024-02-23T09:24:59;3.13;;;0.90;;
70733;SDS011;58320;48.804;9.252;2024-02-23T09:27:24;4.25;;;1.30;;
70733;SDS011;58320;48.804;9.252;2024-02-23T09:29:50;2.07;;;0.90;;
70733;SDS011;58320;48.804;9.252;2024-02-23T09:32:16;3.03;;;1.30;;
70733;SDS011;58320;48.804;9.252;2024-02-23T09:34:42;2.80;;;1.20;;
70733;SDS011;58320;48.804;9.252;2024-02-23T09:37:07;6.53;;;1.42;;
70733;SDS011;58320;48.804;9.252;2024-02-23T09:39:33;6.17;;;1.30;;
70733;SDS011;58320;48.804;9.252;2024-02-23T09:41:59;1.98;;;0.90;;
70733;SDS011;58320;48.804;9.252;2024-02-23T09:44:28;4.47;;;1.13;;
70733;SDS011;58320;48.804;9.252;2024-02-23T09:47:01;5.13;;;1.35;;
70733;SDS011;58320;48.804;9.252;2024-02-23T09:49:38;4.13;;;1.30;;
70733;SDS011;58320;48.804;9.252;2024-02-23T09:52:09;4.55;;;1.05;;
70733;SDS011;58320;48.804;9.252;2024-02-23T09:54:38;3.78;;;1.38;;
70733;SDS011;58320;48.804;9.252;2024-02-23T09:57:06;3.63;;;1.40;;
70733;SDS011;58320;48.804;9.252;2024-02-23T09:59:36;4.22;;;1.00;;
70733;SDS011;58320;48.804;9.252;2024-02-23T10:02:04;5.77;;;1.33;;
70733;SDS011;58320;48.804;9.252;2024-02-23T10:04:39;3.85;;;1.25;;
70733;SDS011;58320;48.804;9.252;2024-02-23T10:07:08;4.68;;;1.50;;
70733;SDS011;58320;48.804;9.252;2024-02-23T10:09:34;3.65;;;1.23;;
70733;SDS011;58320;48.804;9.252;2024-02-23T10:12:01;4.07;;;1.33;;
70733;SDS011;58320;48.804;9.252;2024-02-23T10:14:27;4.77;;;1.27;;
70733;SDS011;58320;48.804;9.252;2024-02-23T10:16:53;3.90;;;1.10;;
70733;SDS011;58320;48.804;9.252;2024-02-23T10:19:20;4.63;;;1.30;;
70733;SDS011;58320;48.804;9.252;2024-02-23T10:21:46;3.63;;;0.70;;
70733;SDS011;58320;48.804;9.252;2024-02-23T10:24:13;3.63;;;1.30;;
70733;SDS011;58320;48.804;9.252;2024-02-23T10:26:42;4.97;;;1.77;;
70733;SDS011;58320;48.804;9.252;2024-02-23T10:29:07;5.90;;;2.08;;
70733;SDS011;58320;48.804;9.252;2024-02-23T10:31:36;4.77;;;1.20;;
70733;SDS011;58320;48.804;9.252;2024-02-23T10:34:09;5.68;;;1.45;;
70733;SDS011;58320;48.804;9.252;2024-02-23T10:36:39;3.67;;;1.20;;
70733;SDS011;58320;48.804;9.252;2024-02-23T10:39:07;5.53;;;1.13;;
70733;SDS011;58320;48.804;9.252;2024-02-23T10:41:35;5.00;;;1.40;;
70733;SDS011;58320;48.804;9.252;2024-02-23T10:44:04;3.77;;;1.13;;
70733;SDS011;58320;48.804;9.252;2024-02-23T10:46:31;2.90;;;1.00;;
70733;SDS011;58320;48.804;9.252;2024-02-23T10:48:58;2.75;;;1.15;;
70733;SDS011;58320;48.804;9.252;2024-02-23T10:51:24;4.53;;;1.08;;
70733;SDS011;58320;48.804;9.252;2024-02-23T10:53:50;3.10;;;1.00;;
70733;SDS011;58320;48.804;9.252;2024-02-23T10:56:18;5.03;;;1.27;;
70733;SDS011;58320;48.804;9.252;2024-02-23T10:58:44;3.67;;;1.13;;
70733;SDS011;58320;48.804;9.252;2024-02-23T11:01:10;4.93;;;1.10;;
70733;SDS011;58320;48.804;9.252;2024-02-23T11:03:38;4.03;;;1.10;;
70733;SDS011;58320;48.804;9.252;2024-02-23T11:06:07;5.57;;;1.27;;
70733;SDS011;58320;48.804;9.252;2024-02-23T11:08:33;6.23;;;1.30;;
70733;SDS011;58320;48.804;9.252;2024-02-23T11:11:07;3.50;;;1.20;;
70733;SDS011;58320;48.804;9.252;2024-02-23T11:13:35;3.60;;;0.82;;
70733;SDS011;58320;48.804;9.252;2024-02-23T11:16:04;5.10;;;1.33;;
70733;SDS011;58320;48.804;9.252;2024-02-23T11:18:34;4.85;;;1.00;;
70733;SDS011;58320;48.804;9.252;2024-02-23T11:21:02;7.63;;;1.33;;
70733;SDS011;58320;48.804;9.252;2024-02-23T11:23:42;3.67;;;0.95;;
70733;SDS011;58320;48.804;9.252;2024-02-23T11:26:10;3.45;;;1.27;;
70733;SDS011;58320;48.804;9.252;2024-02-23T11:28:47;3.53;;;0.93;;
70733;SDS011;58320;48.804;9.252;2024-02-23T11:31:16;3.88;;;1.23;;
70733;SDS011;58320;48.804;9.252;2024-02-23T11:33:55;6.03;;;1.20;;
70733;SDS011;58320;48.804;9.252;2024-02-23T11:36:28;7.50;;;1.17;;
70733;SDS011;58320;48.804;9.252;2024-02-23T11:38:59;5.50;;;1.15;;
70733;SDS011;58320;48.804;9.252;2024-02-23T11:41:27;5.57;;;1.20;;
70733;SDS011;58320;48.804;9.252;2024-02-23T11:43:54;5.05;;;1.20;;
70733;SDS011;58320;48.804;9.252;2024-02-23T11:46:21;3.47;;;1.30;;
70733;SDS011;58320;48.804;9.252;2024-02-23T11:48:47;4.22;;;1.08;;
70733;SDS011;58320;48.804;9.252;2024-02-23T11:51:22;3.88;;;1.00;;
70733;SDS011;58320;48.804;9.252;2024-02-23T11:53:49;5.80;;;1.52;;
70733;SDS011;58320;48.804;9.252;2024-02-23T11:56:15;4.03;;;1.30;;
70733;SDS011;58320;48.804;9.252;2024-02-23T11:58:42;6.57;;;1.50;;
70733;SDS011;58320;48.804;9.252;2024-02-23T12:01:08;4.25;;;1.25;;
70733;SDS011;58320;48.804;9.252;2024-02-23T12:03:34;4.97;;;1.38;;
70733;SDS011;58320;48.804;9.252;2024-02-23T12:06:00;4.40;;;1.20;;
70733;SDS011;58320;48.804;9.252;2024-02-23T12:08:27;6.00;;;1.33;;
70733;SDS011;58320;48.804;9.252;2024-02-23T12:11:04;5.95;;;1.30;;
70733;SDS011;58320;48.804;9.252;2024-02-23T12:13:33;4.75;;;1.40;;
70733;SDS011;58320;48.804;9.252;2024-02-23T12:15:59;7.22;;;1.08;;
70733;SDS011;58320;48.804;9.252;2024-02-23T12:18:26;3.78;;;1.30;;
70733;SDS011;58320;48.804;9.252;2024-02-23T12:20:52;5.20;;;1.30;;
70733;SDS011;58320;48.804;9.252;2024-02-23T12:23:18;4.93;;;1.40;;
70733;SDS011;58320;48.804;9.252;2024-02-23T12:25:52;4.77;;;1.10;;
70733;SDS011;58320;48.804;9.252;2024-02-23T12:28:25;4.82;;;1.38;;
70733;SDS011;58320;48.804;9.252;2024-02-23T12:31:01;3.42;;;0.98;;
70733;SDS011;58320;48.804;9.252;2024-02-23T12:33:28;5.97;;;1.10;;
70733;SDS011;58320;48.804;9.252;2024-02-23T12:35:56;6.82;;;1.23;;
70733;SDS011;58320;48.804;9.252;2024-02-23T12:38:23;6.07;;;1.53;;
70733;SDS011;58320;48.804;9.252;2024-02-23T12:40:50;3.92;;;0.85;;
70733;SDS011;58320;48.804;9.252;2024-02-23T12:43:17;4.70;;;1.05;;
70733;SDS011;58320;48.804;9.252;2024-02-23T12:45:43;4.32;;;1.30;;
70733;SDS011;58320;48.804;9.252;2024-02-23T12:48:10;3.55;;;0.93;;
70733;SDS011;58320;48.804;9.252;2024-02-23T12:50:36;7.73;;;1.13;;
70733;SDS011;58320;48.804;9.252;2024-02-23T12:53:02;6.30;;;1.20;;
70733;SDS011;58320;48.804;9.252;2024-02-23T12:55:29;5.57;;;1.20;;
70733;SDS011;58320;48.804;9.252;2024-02-23T12:57:54;5.43;;;1.13;;
70733;SDS011;58320;48.804;9.252;2024-02-23T13:00:20;6.53;;;1.58;;
70733;SDS011;58320;48.804;9.252;2024-02-23T13:02:46;4.57;;;1.07;;
70733;SDS011;58320;48.804;9.252;2024-02-23T13:05:12;3.25;;;0.95;;
70733;SDS011;58320;48.804;9.252;2024-02-23T13:07:38;6.32;;;1.55;;
70733;SDS011;58320;48.804;9.252;2024-02-23T13:10:05;4.17;;;1.27;;
70733;SDS011;58320;48.804;9.252;2024-02-23T13:12:32;4.75;;;1.00;;
70733;SDS011;58320;48.804;9.252;2024-02-23T13:14:58;2.63;;;1.10;;
70733;SDS011;58320;48.804;9.252;2024-02-23T13:17:23;4.50;;;1.08;;
70733;SDS011;58320;48.804;9.252;2024-02-23T13:19:50;7.63;;;1.20;;
70733;SDS011;58320;48.804;9.252;2024-02-23T13:22:15;4.20;;;0.90;;
70733;SDS011;58320;48.804;9.252;2024-02-23T13:24:41;6.53;;;1.63;;
70733;SDS011;58320;48.804;9.252;2024-02-23T13:27:07;4.70;;;1.23;;
70733;SDS011;58320;48.804;9.252;2024-02-23T13:29:33;4.93;;;1.25;;
70733;SDS011;58320;48.804;9.252;2024-02-23T13:31:58;4.30;;;1.10;;
70733;SDS011;58320;48.804;9.252;2024-02-23T13:34:24;3.50;;;1.00;;
70733;SDS011;58320;48.804;9.252;2024-02-23T13:36:50;4.60;;;1.17;;
70733;SDS011;58320;48.804;9.252;2024-02-23T13:39:17;5.93;;;1.42;;
70733;SDS011;58320;48.804;9.252;2024-02-23T13:41:43;5.90;;;1.10;;
70733;SDS011;58320;48.804;9.252;2024-02-23T13:44:09;3.37;;;0.90;;
70733;SDS011;58320;48.804;9.252;2024-02-23T13:46:38;4.00;;;1.10;;
70733;SDS011;58320;48.804;9.252;2024-02-23T13:49:04;7.72;;;1.35;;
70733;SDS011;58320;48.804;9.252;2024-02-23T13:51:32;5.70;;;1.37;;
70733;SDS011;58320;48.804;9.252;2024-02-23T13:53:59;4.82;;;1.20;;
70733;SDS011;58320;48.804;9.252;2024-02-23T13:56:25;3.53;;;1.20;;
70733;SDS011;58320;48.804;9.252;2024-02-23T13:58:51;6.90;;;1.57;;
70733;SDS011;58320;48.804;9.252;2024-02-23T14:01:17;4.40;;;1.30;;
70733;SDS011;58320;48.804;9.252;2024-02-23T14:03:42;7.32;;;1.40;;
70733;SDS011;58320;48.804;9.252;2024-02-23T14:06:08;6.27;;;1.40;;
70733;SDS011;58320;48.804;9.252;2024-02-23T14:08:34;6.20;;;1.60;;
70733;SDS011;58320;48.804;9.252;2024-02-23T14:11:02;7.20;;;1.30;;
70733;SDS011;58320;48.804;9.252;2024-02-23T14:13:31;5.45;;;1.30;;
70733;SDS011;58320;48.804;9.252;2024-02-23T14:15:57;6.00;;;0.93;;
70733;SDS011;58320;48.804;9.252;2024-02-23T14:18:23;6.57;;;1.50;;
70733;SDS011;58320;48.804;9.252;2024-02-23T14:20:49;7.13;;;1.33;;
70733;SDS011;58320;48.804;9.252;2024-02-23T14:23:17;3.95;;;1.10;;
70733;SDS011;58320;48.804;9.252;2024-02-23T14:25:43;7.33;;;1.50;;
70733;SDS011;58320;48.804;9.252;2024-02-23T14:28:08;6.18;;;1.50;;
70733;SDS011;58320;48.804;9.252;2024-02-23T14:30:35;6.00;;;1.35;;
70733;SDS011;58320;48.804;9.252;2024-02-23T14:33:01;6.37;;;1.00;;
70733;SDS011;58320;48.804;9.252;2024-02-23T14:35:27;6.78;;;1.08;;
70733;SDS011;58320;48.804;9.252;2024-02-23T14:37:52;5.40;;;1.02;;
70733;SDS011;58320;48.804;9.252;2024-02-23T14:40:18;5.50;;;1.00;;
70733;SDS011;58320;48.804;9.252;2024-02-23T14:42:44;4.63;;;1.10;;
70733;SDS011;58320;48.804;9.252;2024-02-23T14:45:10;5.57;;;1.40;;
70733;SDS011;58320;48.804;9.252;2024-02-23T14:47:38;7.13;;;1.10;;